Terminal Aerodrome Forecast
Issued by NWS

Home | Current Version | Previous Version | Text Only | Print | Product List | Glossary On
Versions: 1 2 3 4 5 6 7 8 9 10 11 12
000
FTUS43 KDDC 170500
TAFHYS
TAF
KHYS 170520Z 1706/1806 04012KT P6SM FEW120
     FM170800 04010KT P6SM BKN100
     FM171700 07010KT P6SM BKN100=

USA.gov is the U.S. government's official web portal to all federal, state and local government web resources and services.